sensor_id;sensor_type;location;lat;lon;timestamp;P1;durP1;ratioP1;P2;durP2;ratioP2
19800;SDS011;10060;48.274;12.214;2023-05-10T00:02:01;2.50;;;1.80;;
19800;SDS011;10060;48.274;12.214;2023-05-10T00:05:04;1.50;;;1.40;;
19800;SDS011;10060;48.274;12.214;2023-05-10T00:08:07;2.07;;;1.63;;
19800;SDS011;10060;48.274;12.214;2023-05-10T00:11:09;1.63;;;1.37;;
19800;SDS011;10060;48.274;12.214;2023-05-10T00:14:12;2.23;;;1.60;;
19800;SDS011;10060;48.274;12.214;2023-05-10T00:17:14;2.10;;;1.60;;
19800;SDS011;10060;48.274;12.214;2023-05-10T00:20:16;1.50;;;1.40;;
19800;SDS011;10060;48.274;12.214;2023-05-10T00:23:19;1.30;;;1.20;;
19800;SDS011;10060;48.274;12.214;2023-05-10T00:26:21;2.57;;;1.30;;
19800;SDS011;10060;48.274;12.214;2023-05-10T00:29:23;1.10;;;1.10;;
19800;SDS011;10060;48.274;12.214;2023-05-10T00:32:26;1.30;;;1.20;;
19800;SDS011;10060;48.274;12.214;2023-05-10T00:35:28;1.53;;;1.43;;
19800;SDS011;10060;48.274;12.214;2023-05-10T00:38:32;2.47;;;1.53;;
19800;SDS011;10060;48.274;12.214;2023-05-10T00:41:34;1.67;;;1.50;;
19800;SDS011;10060;48.274;12.214;2023-05-10T00:44:36;1.57;;;1.47;;
19800;SDS011;10060;48.274;12.214;2023-05-10T00:47:38;1.70;;;1.60;;
19800;SDS011;10060;48.274;12.214;2023-05-10T00:50:41;2.03;;;1.93;;
19800;SDS011;10060;48.274;12.214;2023-05-10T00:53:44;2.13;;;1.30;;
19800;SDS011;10060;48.274;12.214;2023-05-10T00:56:47;3.03;;;1.67;;
19800;SDS011;10060;48.274;12.214;2023-05-10T00:59:49;2.00;;;1.80;;
19800;SDS011;10060;48.274;12.214;2023-05-10T01:02:52;2.30;;;1.90;;
19800;SDS011;10060;48.274;12.214;2023-05-10T01:05:55;3.97;;;2.10;;
19800;SDS011;10060;48.274;12.214;2023-05-10T01:08:58;3.37;;;2.20;;
19800;SDS011;10060;48.274;12.214;2023-05-10T01:12:00;2.43;;;2.23;;
19800;SDS011;10060;48.274;12.214;2023-05-10T01:15:04;4.40;;;2.40;;
19800;SDS011;10060;48.274;12.214;2023-05-10T01:18:07;3.30;;;3.00;;
19800;SDS011;10060;48.274;12.214;2023-05-10T01:21:14;3.77;;;2.50;;
19800;SDS011;10060;48.274;12.214;2023-05-10T01:24:25;4.10;;;2.33;;
19800;SDS011;10060;48.274;12.214;2023-05-10T01:27:35;3.90;;;2.50;;
19800;SDS011;10060;48.274;12.214;2023-05-10T01:30:57;3.97;;;2.33;;
19800;SDS011;10060;48.274;12.214;2023-05-10T01:34:07;3.40;;;2.37;;
19800;SDS011;10060;48.274;12.214;2023-05-10T01:37:10;3.13;;;2.50;;
19800;SDS011;10060;48.274;12.214;2023-05-10T01:40:16;2.50;;;2.00;;
19800;SDS011;10060;48.274;12.214;2023-05-10T01:43:21;2.40;;;2.20;;
19800;SDS011;10060;48.274;12.214;2023-05-10T01:46:26;2.33;;;2.03;;
19800;SDS011;10060;48.274;12.214;2023-05-10T01:49:31;3.50;;;2.00;;
19800;SDS011;10060;48.274;12.214;2023-05-10T01:52:36;2.47;;;1.90;;
19800;SDS011;10060;48.274;12.214;2023-05-10T01:55:39;3.30;;;2.13;;
19800;SDS011;10060;48.274;12.214;2023-05-10T01:58:43;2.50;;;2.30;;
19800;SDS011;10060;48.274;12.214;2023-05-10T02:01:46;2.53;;;2.30;;
19800;SDS011;10060;48.274;12.214;2023-05-10T02:04:50;2.30;;;2.10;;
19800;SDS011;10060;48.274;12.214;2023-05-10T02:07:53;3.67;;;2.00;;
19800;SDS011;10060;48.274;12.214;2023-05-10T02:10:56;2.67;;;2.00;;
19800;SDS011;10060;48.274;12.214;2023-05-10T02:13:58;1.97;;;1.83;;
19800;SDS011;10060;48.274;12.214;2023-05-10T02:17:02;4.43;;;2.03;;
19800;SDS011;10060;48.274;12.214;2023-05-10T02:20:07;2.07;;;1.80;;
19800;SDS011;10060;48.274;12.214;2023-05-10T02:23:11;3.73;;;2.20;;
19800;SDS011;10060;48.274;12.214;2023-05-10T02:26:14;2.57;;;1.70;;
19800;SDS011;10060;48.274;12.214;2023-05-10T02:29:17;2.07;;;1.87;;
19800;SDS011;10060;48.274;12.214;2023-05-10T02:32:20;2.13;;;1.70;;
19800;SDS011;10060;48.274;12.214;2023-05-10T02:35:24;1.80;;;1.40;;
19800;SDS011;10060;48.274;12.214;2023-05-10T02:38:27;2.03;;;1.63;;
19800;SDS011;10060;48.274;12.214;2023-05-10T02:41:30;1.43;;;1.33;;
19800;SDS011;10060;48.274;12.214;2023-05-10T02:44:32;1.40;;;1.30;;
19800;SDS011;10060;48.274;12.214;2023-05-10T02:47:35;3.33;;;1.40;;
19800;SDS011;10060;48.274;12.214;2023-05-10T02:50:39;1.43;;;1.30;;
19800;SDS011;10060;48.274;12.214;2023-05-10T02:53:46;1.50;;;1.40;;
19800;SDS011;10060;48.274;12.214;2023-05-10T02:56:50;1.40;;;1.30;;
19800;SDS011;10060;48.274;12.214;2023-05-10T02:59:52;1.20;;;1.10;;
19800;SDS011;10060;48.274;12.214;2023-05-10T03:02:55;1.00;;;1.00;;
19800;SDS011;10060;48.274;12.214;2023-05-10T03:05:59;1.50;;;1.30;;
19800;SDS011;10060;48.274;12.214;2023-05-10T03:09:01;1.00;;;1.00;;
19800;SDS011;10060;48.274;12.214;2023-05-10T03:12:04;1.23;;;1.13;;
19800;SDS011;10060;48.274;12.214;2023-05-10T03:15:11;1.47;;;1.37;;
19800;SDS011;10060;48.274;12.214;2023-05-10T03:18:15;1.37;;;1.27;;
19800;SDS011;10060;48.274;12.214;2023-05-10T03:21:20;2.30;;;1.40;;
19800;SDS011;10060;48.274;12.214;2023-05-10T03:24:24;1.37;;;1.27;;
19800;SDS011;10060;48.274;12.214;2023-05-10T03:27:29;1.70;;;1.30;;
19800;SDS011;10060;48.274;12.214;2023-05-10T03:30:31;1.80;;;1.70;;
19800;SDS011;10060;48.274;12.214;2023-05-10T03:33:34;2.30;;;1.17;;
19800;SDS011;10060;48.274;12.214;2023-05-10T03:36:38;1.20;;;1.10;;
19800;SDS011;10060;48.274;12.214;2023-05-10T03:39:40;1.93;;;1.40;;
19800;SDS011;10060;48.274;12.214;2023-05-10T03:42:42;2.67;;;1.27;;
19800;SDS011;10060;48.274;12.214;2023-05-10T03:45:44;1.37;;;1.27;;
19800;SDS011;10060;48.274;12.214;2023-05-10T03:48:46;1.50;;;1.27;;
19800;SDS011;10060;48.274;12.214;2023-05-10T03:51:50;1.27;;;1.13;;
19800;SDS011;10060;48.274;12.214;2023-05-10T03:54:52;1.53;;;1.40;;
19800;SDS011;10060;48.274;12.214;2023-05-10T03:57:54;3.00;;;1.40;;
19800;SDS011;10060;48.274;12.214;2023-05-10T04:00:56;1.87;;;1.20;;
19800;SDS011;10060;48.274;12.214;2023-05-10T04:03:58;1.17;;;1.00;;
19800;SDS011;10060;48.274;12.214;2023-05-10T04:07:01;1.00;;;1.00;;
19800;SDS011;10060;48.274;12.214;2023-05-10T04:10:04;3.17;;;1.40;;
19800;SDS011;10060;48.274;12.214;2023-05-10T04:13:07;1.70;;;1.17;;
19800;SDS011;10060;48.274;12.214;2023-05-10T04:16:09;2.40;;;1.40;;
19800;SDS011;10060;48.274;12.214;2023-05-10T04:19:11;3.17;;;1.30;;
19800;SDS011;10060;48.274;12.214;2023-05-10T04:22:14;1.30;;;1.20;;
19800;SDS011;10060;48.274;12.214;2023-05-10T04:25:16;1.40;;;1.30;;
19800;SDS011;10060;48.274;12.214;2023-05-10T04:28:18;1.33;;;1.23;;
19800;SDS011;10060;48.274;12.214;2023-05-10T04:31:21;1.30;;;1.20;;
19800;SDS011;10060;48.274;12.214;2023-05-10T04:34:23;1.27;;;1.10;;
19800;SDS011;10060;48.274;12.214;2023-05-10T04:37:27;2.13;;;1.30;;
19800;SDS011;10060;48.274;12.214;2023-05-10T04:40:29;2.17;;;1.20;;
19800;SDS011;10060;48.274;12.214;2023-05-10T04:43:31;1.20;;;1.10;;
19800;SDS011;10060;48.274;12.214;2023-05-10T04:46:33;1.40;;;1.30;;
19800;SDS011;10060;48.274;12.214;2023-05-10T04:49:35;1.43;;;1.30;;
19800;SDS011;10060;48.274;12.214;2023-05-10T04:52:39;1.00;;;1.00;;
19800;SDS011;10060;48.274;12.214;2023-05-10T04:55:41;2.57;;;1.23;;
19800;SDS011;10060;48.274;12.214;2023-05-10T04:58:43;1.40;;;1.30;;
19800;SDS011;10060;48.274;12.214;2023-05-10T05:01:45;1.63;;;1.20;;
19800;SDS011;10060;48.274;12.214;2023-05-10T05:04:48;3.13;;;1.23;;
19800;SDS011;10060;48.274;12.214;2023-05-10T05:07:51;1.27;;;1.07;;
19800;SDS011;10060;48.274;12.214;2023-05-10T05:10:53;1.40;;;1.30;;
19800;SDS011;10060;48.274;12.214;2023-05-10T05:13:55;1.70;;;1.60;;
19800;SDS011;10060;48.274;12.214;2023-05-10T05:16:58;2.60;;;1.40;;
19800;SDS011;10060;48.274;12.214;2023-05-10T05:20:01;2.33;;;1.33;;
19800;SDS011;10060;48.274;12.214;2023-05-10T05:23:04;1.83;;;1.40;;
19800;SDS011;10060;48.274;12.214;2023-05-10T05:26:06;2.83;;;1.33;;
19800;SDS011;10060;48.274;12.214;2023-05-10T05:29:08;1.20;;;1.10;;
19800;SDS011;10060;48.274;12.214;2023-05-10T05:32:10;1.50;;;1.03;;
19800;SDS011;10060;48.274;12.214;2023-05-10T05:35:12;1.60;;;1.10;;
19800;SDS011;10060;48.274;12.214;2023-05-10T05:38:16;1.23;;;1.13;;
19800;SDS011;10060;48.274;12.214;2023-05-10T05:41:18;1.37;;;1.20;;
19800;SDS011;10060;48.274;12.214;2023-05-10T05:44:21;1.23;;;1.13;;
19800;SDS011;10060;48.274;12.214;2023-05-10T05:47:23;1.40;;;1.30;;
19800;SDS011;10060;48.274;12.214;2023-05-10T05:50:25;1.57;;;1.20;;
19800;SDS011;10060;48.274;12.214;2023-05-10T05:53:29;1.30;;;1.10;;
19800;SDS011;10060;48.274;12.214;2023-05-10T05:56:31;1.33;;;1.10;;
19800;SDS011;10060;48.274;12.214;2023-05-10T05:59:33;1.23;;;1.13;;
19800;SDS011;10060;48.274;12.214;2023-05-10T06:02:35;1.27;;;1.17;;
19800;SDS011;10060;48.274;12.214;2023-05-10T06:05:37;1.20;;;1.03;;
19800;SDS011;10060;48.274;12.214;2023-05-10T06:08:41;2.20;;;1.00;;
19800;SDS011;10060;48.274;12.214;2023-05-10T06:11:43;1.87;;;1.10;;
19800;SDS011;10060;48.274;12.214;2023-05-10T06:14:45;1.00;;;1.00;;
19800;SDS011;10060;48.274;12.214;2023-05-10T06:17:47;1.13;;;1.13;;
19800;SDS011;10060;48.274;12.214;2023-05-10T06:20:50;1.10;;;1.10;;
19800;SDS011;10060;48.274;12.214;2023-05-10T06:23:53;2.43;;;1.20;;
19800;SDS011;10060;48.274;12.214;2023-05-10T06:26:55;1.40;;;1.30;;
19800;SDS011;10060;48.274;12.214;2023-05-10T06:30:00;1.17;;;1.07;;
19800;SDS011;10060;48.274;12.214;2023-05-10T06:33:02;0.70;;;0.70;;
19800;SDS011;10060;48.274;12.214;2023-05-10T06:36:05;0.90;;;0.90;;
19800;SDS011;10060;48.274;12.214;2023-05-10T06:39:08;0.80;;;0.80;;
19800;SDS011;10060;48.274;12.214;2023-05-10T06:42:11;1.83;;;0.90;;
19800;SDS011;10060;48.274;12.214;2023-05-10T06:45:13;0.90;;;0.90;;
19800;SDS011;10060;48.274;12.214;2023-05-10T06:48:16;1.10;;;1.10;;
19800;SDS011;10060;48.274;12.214;2023-05-10T06:51:18;1.13;;;0.83;;
19800;SDS011;10060;48.274;12.214;2023-05-10T06:54:22;1.07;;;1.00;;
19800;SDS011;10060;48.274;12.214;2023-05-10T06:57:24;1.20;;;1.20;;
19800;SDS011;10060;48.274;12.214;2023-05-10T07:00:26;1.30;;;1.20;;
19800;SDS011;10060;48.274;12.214;2023-05-10T07:03:28;1.93;;;1.40;;
19800;SDS011;10060;48.274;12.214;2023-05-10T07:06:30;1.60;;;1.50;;
19800;SDS011;10060;48.274;12.214;2023-05-10T07:09:34;1.77;;;1.30;;
19800;SDS011;10060;48.274;12.214;2023-05-10T07:12:36;1.30;;;1.20;;
19800;SDS011;10060;48.274;12.214;2023-05-10T07:15:39;1.40;;;1.30;;
19800;SDS011;10060;48.274;12.214;2023-05-10T07:18:41;1.60;;;1.50;;
19800;SDS011;10060;48.274;12.214;2023-05-10T07:21:43;2.83;;;1.90;;
19800;SDS011;10060;48.274;12.214;2023-05-10T07:24:46;2.57;;;2.37;;
19800;SDS011;10060;48.274;12.214;2023-05-10T07:27:48;3.00;;;2.00;;
19800;SDS011;10060;48.274;12.214;2023-05-10T07:30:51;3.10;;;2.00;;
19800;SDS011;10060;48.274;12.214;2023-05-10T07:33:53;2.13;;;1.93;;
19800;SDS011;10060;48.274;12.214;2023-05-10T07:36:55;2.00;;;1.80;;
19800;SDS011;10060;48.274;12.214;2023-05-10T07:39:58;3.07;;;2.00;;
19800;SDS011;10060;48.274;12.214;2023-05-10T07:43:00;2.10;;;1.77;;
19800;SDS011;10060;48.274;12.214;2023-05-10T07:46:02;2.27;;;2.07;;
19800;SDS011;10060;48.274;12.214;2023-05-10T07:49:05;2.20;;;1.97;;
19800;SDS011;10060;48.274;12.214;2023-05-10T07:52:07;3.33;;;1.83;;
19800;SDS011;10060;48.274;12.214;2023-05-10T07:55:11;1.80;;;1.70;;
19800;SDS011;10060;48.274;12.214;2023-05-10T07:58:13;2.17;;;2.03;;
19800;SDS011;10060;48.274;12.214;2023-05-10T08:01:15;2.23;;;2.03;;
19800;SDS011;10060;48.274;12.214;2023-05-10T08:04:17;2.57;;;2.00;;
19800;SDS011;10060;48.274;12.214;2023-05-10T08:07:19;2.50;;;2.00;;
19800;SDS011;10060;48.274;12.214;2023-05-10T08:10:23;2.47;;;2.27;;
19800;SDS011;10060;48.274;12.214;2023-05-10T08:13:25;2.90;;;2.27;;
19800;SDS011;10060;48.274;12.214;2023-05-10T08:16:28;2.53;;;2.33;;
19800;SDS011;10060;48.274;12.214;2023-05-10T08:19:30;7.47;;;3.83;;
19800;SDS011;10060;48.274;12.214;2023-05-10T08:22:32;2.63;;;2.40;;
19800;SDS011;10060;48.274;12.214;2023-05-10T08:25:35;3.67;;;2.60;;
19800;SDS011;10060;48.274;12.214;2023-05-10T08:28:37;3.13;;;2.83;;
19800;SDS011;10060;48.274;12.214;2023-05-10T08:31:39;5.60;;;4.10;;
19800;SDS011;10060;48.274;12.214;2023-05-10T08:34:42;4.27;;;3.87;;
19800;SDS011;10060;48.274;12.214;2023-05-10T08:37:44;3.73;;;3.03;;
19800;SDS011;10060;48.274;12.214;2023-05-10T08:40:47;4.13;;;3.77;;
19800;SDS011;10060;48.274;12.214;2023-05-10T08:43:51;3.93;;;2.47;;
19800;SDS011;10060;48.274;12.214;2023-05-10T08:46:53;3.93;;;2.53;;
19800;SDS011;10060;48.274;12.214;2023-05-10T08:49:55;3.07;;;2.77;;
19800;SDS011;10060;48.274;12.214;2023-05-10T08:53:00;2.63;;;2.10;;
19800;SDS011;10060;48.274;12.214;2023-05-10T08:56:06;2.73;;;2.53;;
19800;SDS011;10060;48.274;12.214;2023-05-10T08:59:08;2.10;;;1.93;;
19800;SDS011;10060;48.274;12.214;2023-05-10T09:02:12;2.23;;;2.03;;
19800;SDS011;10060;48.274;12.214;2023-05-10T09:05:14;2.70;;;2.37;;
19800;SDS011;10060;48.274;12.214;2023-05-10T09:08:17;2.30;;;2.00;;
19800;SDS011;10060;48.274;12.214;2023-05-10T09:11:21;2.47;;;2.27;;
19800;SDS011;10060;48.274;12.214;2023-05-10T09:14:24;3.00;;;2.80;;
19800;SDS011;10060;48.274;12.214;2023-05-10T09:17:26;3.00;;;2.70;;
19800;SDS011;10060;48.274;12.214;2023-05-10T09:20:29;2.97;;;2.37;;
19800;SDS011;10060;48.274;12.214;2023-05-10T09:23:31;2.83;;;2.60;;
19800;SDS011;10060;48.274;12.214;2023-05-10T09:26:34;3.57;;;2.73;;
19800;SDS011;10060;48.274;12.214;2023-05-10T09:29:41;2.42;;;2.22;;
19800;SDS011;10060;48.274;12.214;2023-05-10T09:32:44;3.35;;;2.47;;
19800;SDS011;10060;48.274;12.214;2023-05-10T09:35:46;3.03;;;2.73;;
19800;SDS011;10060;48.274;12.214;2023-05-10T09:38:49;2.60;;;2.35;;
19800;SDS011;10060;48.274;12.214;2023-05-10T09:41:53;2.57;;;2.37;;
19800;SDS011;10060;48.274;12.214;2023-05-10T09:44:58;3.65;;;2.35;;
19800;SDS011;10060;48.274;12.214;2023-05-10T09:48:02;1.95;;;1.85;;
19800;SDS011;10060;48.274;12.214;2023-05-10T09:51:04;2.30;;;2.10;;
19800;SDS011;10060;48.274;12.214;2023-05-10T09:54:10;2.22;;;2.03;;
19800;SDS011;10060;48.274;12.214;2023-05-10T09:57:19;2.45;;;2.25;;
19800;SDS011;10060;48.274;12.214;2023-05-10T10:00:22;2.90;;;2.20;;
19800;SDS011;10060;48.274;12.214;2023-05-10T10:03:24;3.17;;;2.05;;
19800;SDS011;10060;48.274;12.214;2023-05-10T10:06:26;1.85;;;1.73;;
19800;SDS011;10060;48.274;12.214;2023-05-10T10:09:28;2.42;;;2.22;;
19800;SDS011;10060;48.274;12.214;2023-05-10T10:12:32;2.30;;;2.10;;
19800;SDS011;10060;48.274;12.214;2023-05-10T10:15:34;3.03;;;2.55;;
19800;SDS011;10060;48.274;12.214;2023-05-10T10:18:36;2.75;;;2.25;;
19800;SDS011;10060;48.274;12.214;2023-05-10T10:21:39;2.85;;;2.55;;
19800;SDS011;10060;48.274;12.214;2023-05-10T10:24:41;3.88;;;2.47;;
19800;SDS011;10060;48.274;12.214;2023-05-10T10:27:47;3.58;;;2.03;;
19800;SDS011;10060;48.274;12.214;2023-05-10T10:30:51;2.40;;;2.20;;
19800;SDS011;10060;48.274;12.214;2023-05-10T10:33:59;2.58;;;2.38;;
19800;SDS011;10060;48.274;12.214;2023-05-10T10:37:03;3.10;;;2.78;;
19800;SDS011;10060;48.274;12.214;2023-05-10T10:40:24;4.30;;;2.55;;
19800;SDS011;10060;48.274;12.214;2023-05-10T10:43:28;2.40;;;2.20;;
19800;SDS011;10060;48.274;12.214;2023-05-10T10:46:30;4.47;;;2.58;;
19800;SDS011;10060;48.274;12.214;2023-05-10T10:49:32;3.22;;;2.58;;
19800;SDS011;10060;48.274;12.214;2023-05-10T10:52:35;2.58;;;2.30;;
19800;SDS011;10060;48.274;12.214;2023-05-10T10:55:44;2.30;;;1.60;;
19800;SDS011;10060;48.274;12.214;2023-05-10T10:58:51;2.35;;;1.08;;
19800;SDS011;10060;48.274;12.214;2023-05-10T11:01:53;1.20;;;1.00;;
19800;SDS011;10060;48.274;12.214;2023-05-10T11:04:55;1.45;;;1.35;;
19800;SDS011;10060;48.274;12.214;2023-05-10T11:07:58;5.77;;;1.40;;
19800;SDS011;10060;48.274;12.214;2023-05-10T11:11:05;2.33;;;1.60;;
19800;SDS011;10060;48.274;12.214;2023-05-10T11:14:12;2.17;;;1.27;;
19800;SDS011;10060;48.274;12.214;2023-05-10T11:17:23;2.67;;;1.43;;
19800;SDS011;10060;48.274;12.214;2023-05-10T11:20:27;1.63;;;1.27;;
19800;SDS011;10060;48.274;12.214;2023-05-10T11:23:47;1.40;;;1.30;;
19800;SDS011;10060;48.274;12.214;2023-05-10T11:26:49;1.83;;;1.67;;
19800;SDS011;10060;48.274;12.214;2023-05-10T11:29:53;2.67;;;1.60;;
19800;SDS011;10060;48.274;12.214;2023-05-10T11:32:55;3.60;;;2.00;;
19800;SDS011;10060;48.274;12.214;2023-05-10T11:35:57;2.93;;;1.80;;
19800;SDS011;10060;48.274;12.214;2023-05-10T11:38:59;3.73;;;1.83;;
19800;SDS011;10060;48.274;12.214;2023-05-10T11:42:02;3.80;;;1.90;;
19800;SDS011;10060;48.274;12.214;2023-05-10T11:45:06;2.20;;;2.00;;
19800;SDS011;10060;48.274;12.214;2023-05-10T11:48:08;4.70;;;2.40;;
19800;SDS011;10060;48.274;12.214;2023-05-10T11:51:11;2.20;;;2.00;;
19800;SDS011;10060;48.274;12.214;2023-05-10T11:54:13;3.95;;;1.85;;
19800;SDS011;10060;48.274;12.214;2023-05-10T11:57:15;3.40;;;2.20;;
19800;SDS011;10060;48.274;12.214;2023-05-10T12:00:18;1.80;;;1.70;;
19800;SDS011;10060;48.274;12.214;2023-05-10T12:03:21;2.57;;;2.37;;
19800;SDS011;10060;48.274;12.214;2023-05-10T12:06:25;3.38;;;2.58;;
19800;SDS011;10060;48.274;12.214;2023-05-10T12:09:28;2.67;;;2.47;;
19800;SDS011;10060;48.274;12.214;2023-05-10T12:12:34;5.82;;;3.00;;
19800;SDS011;10060;48.274;12.214;2023-05-10T12:15:38;3.67;;;2.28;;
19800;SDS011;10060;48.274;12.214;2023-05-10T12:18:40;2.58;;;2.00;;
19800;SDS011;10060;48.274;12.214;2023-05-10T12:21:43;2.85;;;2.10;;
19800;SDS011;10060;48.274;12.214;2023-05-10T12:24:45;5.90;;;4.18;;
19800;SDS011;10060;48.274;12.214;2023-05-10T12:27:48;2.60;;;2.40;;
19800;SDS011;10060;48.274;12.214;2023-05-10T12:30:52;2.80;;;2.53;;
19800;SDS011;10060;48.274;12.214;2023-05-10T12:33:55;24.20;;;3.10;;
19800;SDS011;10060;48.274;12.214;2023-05-10T12:36:57;4.93;;;2.60;;
19800;SDS011;10060;48.274;12.214;2023-05-10T12:40:00;3.20;;;2.33;;
19800;SDS011;10060;48.274;12.214;2023-05-10T12:43:02;3.08;;;2.40;;
19800;SDS011;10060;48.274;12.214;2023-05-10T12:46:06;2.38;;;2.17;;
19800;SDS011;10060;48.274;12.214;2023-05-10T12:49:08;4.05;;;2.35;;
19800;SDS011;10060;48.274;12.214;2023-05-10T12:52:10;2.50;;;2.30;;
19800;SDS011;10060;48.274;12.214;2023-05-10T12:55:12;3.47;;;2.28;;
19800;SDS011;10060;48.274;12.214;2023-05-10T12:58:14;4.53;;;2.30;;
19800;SDS011;10060;48.274;12.214;2023-05-10T13:01:18;2.33;;;2.00;;
19800;SDS011;10060;48.274;12.214;2023-05-10T13:04:20;3.65;;;2.45;;
19800;SDS011;10060;48.274;12.214;2023-05-10T13:07:22;3.45;;;2.80;;
19800;SDS011;10060;48.274;12.214;2023-05-10T13:10:25;2.95;;;2.65;;
19800;SDS011;10060;48.274;12.214;2023-05-10T13:13:27;3.05;;;2.78;;
19800;SDS011;10060;48.274;12.214;2023-05-10T13:16:30;3.30;;;2.97;;
19800;SDS011;10060;48.274;12.214;2023-05-10T13:19:33;3.47;;;2.65;;
19800;SDS011;10060;48.274;12.214;2023-05-10T13:22:35;4.95;;;2.88;;
19800;SDS011;10060;48.274;12.214;2023-05-10T13:25:37;3.28;;;2.97;;
19800;SDS011;10060;48.274;12.214;2023-05-10T13:28:39;3.78;;;2.80;;
19800;SDS011;10060;48.274;12.214;2023-05-10T13:31:43;3.80;;;3.10;;
19800;SDS011;10060;48.274;12.214;2023-05-10T13:34:45;3.60;;;2.95;;
19800;SDS011;10060;48.274;12.214;2023-05-10T13:37:47;4.28;;;3.42;;
19800;SDS011;10060;48.274;12.214;2023-05-10T13:40:49;11.88;;;4.90;;
19800;SDS011;10060;48.274;12.214;2023-05-10T13:43:52;5.85;;;3.78;;
19800;SDS011;10060;48.274;12.214;2023-05-10T13:46:56;4.30;;;3.47;;
19800;SDS011;10060;48.274;12.214;2023-05-10T13:49:58;12.23;;;4.15;;
19800;SDS011;10060;48.274;12.214;2023-05-10T13:53:01;6.07;;;3.72;;
19800;SDS011;10060;48.274;12.214;2023-05-10T13:56:03;6.53;;;3.42;;
19800;SDS011;10060;48.274;12.214;2023-05-10T13:59:05;4.00;;;3.00;;
19800;SDS011;10060;48.274;12.214;2023-05-10T14:02:09;3.30;;;3.00;;
19800;SDS011;10060;48.274;12.214;2023-05-10T14:05:13;5.47;;;3.50;;
19800;SDS011;10060;48.274;12.214;2023-05-10T14:08:15;7.27;;;4.27;;
19800;SDS011;10060;48.274;12.214;2023-05-10T14:11:17;5.10;;;3.70;;
19800;SDS011;10060;48.274;12.214;2023-05-10T14:14:19;5.83;;;4.00;;
19800;SDS011;10060;48.274;12.214;2023-05-10T14:17:23;4.73;;;3.63;;
19800;SDS011;10060;48.274;12.214;2023-05-10T14:20:25;4.53;;;2.33;;
19800;SDS011;10060;48.274;12.214;2023-05-10T14:23:27;2.20;;;1.70;;
19800;SDS011;10060;48.274;12.214;2023-05-10T14:26:30;2.27;;;1.70;;
19800;SDS011;10060;48.274;12.214;2023-05-10T14:29:32;1.57;;;1.40;;
19800;SDS011;10060;48.274;12.214;2023-05-10T14:32:35;2.40;;;1.77;;
19800;SDS011;10060;48.274;12.214;2023-05-10T14:35:37;1.63;;;1.53;;
19800;SDS011;10060;48.274;12.214;2023-05-10T14:38:40;1.80;;;1.40;;
19800;SDS011;10060;48.274;12.214;2023-05-10T14:41:42;1.60;;;1.50;;
19800;SDS011;10060;48.274;12.214;2023-05-10T14:44:45;1.87;;;1.43;;
19800;SDS011;10060;48.274;12.214;2023-05-10T14:47:49;1.87;;;1.53;;
19800;SDS011;10060;48.274;12.214;2023-05-10T14:50:51;4.43;;;2.63;;
19800;SDS011;10060;48.274;12.214;2023-05-10T14:53:53;1.80;;;1.50;;
19800;SDS011;10060;48.274;12.214;2023-05-10T14:56:55;2.47;;;2.00;;
19800;SDS011;10060;48.274;12.214;2023-05-10T14:59:58;2.70;;;1.80;;
19800;SDS011;10060;48.274;12.214;2023-05-10T15:03:01;2.43;;;1.67;;
19800;SDS011;10060;48.274;12.214;2023-05-10T15:06:04;2.30;;;1.70;;
19800;SDS011;10060;48.274;12.214;2023-05-10T15:09:06;1.70;;;1.60;;
19800;SDS011;10060;48.274;12.214;2023-05-10T15:12:09;2.13;;;1.93;;
19800;SDS011;10060;48.274;12.214;2023-05-10T15:15:11;1.60;;;1.50;;
19800;SDS011;10060;48.274;12.214;2023-05-10T15:18:14;2.67;;;1.50;;
19800;SDS011;10060;48.274;12.214;2023-05-10T15:21:16;2.10;;;1.90;;
19800;SDS011;10060;48.274;12.214;2023-05-10T15:24:18;3.43;;;1.30;;
19800;SDS011;10060;48.274;12.214;2023-05-10T15:27:20;1.97;;;1.77;;
19800;SDS011;10060;48.274;12.214;2023-05-10T15:30:22;4.57;;;2.00;;
19800;SDS011;10060;48.274;12.214;2023-05-10T15:33:26;2.57;;;1.90;;
19800;SDS011;10060;48.274;12.214;2023-05-10T15:36:28;3.90;;;2.00;;
19800;SDS011;10060;48.274;12.214;2023-05-10T15:39:31;2.17;;;1.97;;
19800;SDS011;10060;48.274;12.214;2023-05-10T15:42:33;3.00;;;2.10;;
19800;SDS011;10060;48.274;12.214;2023-05-10T15:45:35;2.47;;;2.17;;
19800;SDS011;10060;48.274;12.214;2023-05-10T15:48:39;2.00;;;1.80;;
19800;SDS011;10060;48.274;12.214;2023-05-10T15:51:41;2.20;;;2.00;;
19800;SDS011;10060;48.274;12.214;2023-05-10T15:54:43;2.93;;;2.50;;
19800;SDS011;10060;48.274;12.214;2023-05-10T15:57:47;2.53;;;2.13;;
19800;SDS011;10060;48.274;12.214;2023-05-10T16:00:50;2.60;;;2.37;;
19800;SDS011;10060;48.274;12.214;2023-05-10T16:03:53;3.10;;;2.30;;
19800;SDS011;10060;48.274;12.214;2023-05-10T16:06:55;4.03;;;3.30;;
19800;SDS011;10060;48.274;12.214;2023-05-10T16:09:58;2.90;;;2.30;;
19800;SDS011;10060;48.274;12.214;2023-05-10T16:13:02;7.33;;;2.63;;
19800;SDS011;10060;48.274;12.214;2023-05-10T16:16:05;3.47;;;2.77;;
19800;SDS011;10060;48.274;12.214;2023-05-10T16:19:09;5.70;;;3.27;;
19800;SDS011;10060;48.274;12.214;2023-05-10T16:22:11;6.60;;;3.03;;
19800;SDS011;10060;48.274;12.214;2023-05-10T16:25:13;6.30;;;3.13;;
19800;SDS011;10060;48.274;12.214;2023-05-10T16:28:16;2.97;;;2.67;;
19800;SDS011;10060;48.274;12.214;2023-05-10T16:31:19;2.93;;;2.57;;
19800;SDS011;10060;48.274;12.214;2023-05-10T16:34:23;2.60;;;2.40;;
19800;SDS011;10060;48.274;12.214;2023-05-10T16:37:25;3.33;;;2.57;;
19800;SDS011;10060;48.274;12.214;2023-05-10T16:40:27;3.77;;;2.40;;
19800;SDS011;10060;48.274;12.214;2023-05-10T16:43:29;3.13;;;2.33;;
19800;SDS011;10060;48.274;12.214;2023-05-10T16:46:33;2.10;;;1.80;;
19800;SDS011;10060;48.274;12.214;2023-05-10T16:49:36;2.60;;;1.70;;
19800;SDS011;10060;48.274;12.214;2023-05-10T16:52:38;2.07;;;1.70;;
19800;SDS011;10060;48.274;12.214;2023-05-10T16:55:41;2.20;;;1.90;;
19800;SDS011;10060;48.274;12.214;2023-05-10T16:58:43;1.90;;;1.80;;
19800;SDS011;10060;48.274;12.214;2023-05-10T17:01:45;4.03;;;1.87;;
19800;SDS011;10060;48.274;12.214;2023-05-10T17:04:49;2.53;;;1.97;;
19800;SDS011;10060;48.274;12.214;2023-05-10T17:07:52;2.10;;;1.90;;
19800;SDS011;10060;48.274;12.214;2023-05-10T17:10:55;2.73;;;2.10;;
19800;SDS011;10060;48.274;12.214;2023-05-10T17:13:57;2.47;;;2.00;;
19800;SDS011;10060;48.274;12.214;2023-05-10T17:17:00;3.43;;;2.30;;
19800;SDS011;10060;48.274;12.214;2023-05-10T17:20:04;2.83;;;2.23;;
19800;SDS011;10060;48.274;12.214;2023-05-10T17:23:06;5.70;;;2.37;;
19800;SDS011;10060;48.274;12.214;2023-05-10T17:26:08;3.90;;;2.50;;
19800;SDS011;10060;48.274;12.214;2023-05-10T17:29:10;2.20;;;2.03;;
19800;SDS011;10060;48.274;12.214;2023-05-10T17:32:13;4.10;;;2.60;;
19800;SDS011;10060;48.274;12.214;2023-05-10T17:35:16;2.50;;;2.30;;
19800;SDS011;10060;48.274;12.214;2023-05-10T17:38:18;2.27;;;2.07;;
19800;SDS011;10060;48.274;12.214;2023-05-10T17:41:21;4.43;;;2.30;;
19800;SDS011;10060;48.274;12.214;2023-05-10T17:44:23;3.03;;;2.07;;
19800;SDS011;10060;48.274;12.214;2023-05-10T17:47:25;2.10;;;1.90;;
19800;SDS011;10060;48.274;12.214;2023-05-10T17:50:29;3.47;;;1.80;;
19800;SDS011;10060;48.274;12.214;2023-05-10T17:53:32;2.00;;;1.80;;
19800;SDS011;10060;48.274;12.214;2023-05-10T17:56:34;1.90;;;1.77;;
19800;SDS011;10060;48.274;12.214;2023-05-10T17:59:36;2.53;;;2.20;;
19800;SDS011;10060;48.274;12.214;2023-05-10T18:02:38;2.43;;;2.10;;
19800;SDS011;10060;48.274;12.214;2023-05-10T18:05:42;4.33;;;2.23;;